Northern Maine Regional Airport at Presque Isle Presque Isle US
ICAO: KPQI
IATA: PQI
Category: Medium
Scheduled Services: Yes

Elevation: 534 ft
TransAlt. 18000 ft.

Airport Communications:
AWOS 3:118.025
BOSTON CLNC DEL:121.6
BOSTON CNTR:124.75
CTAF/UNICOM:122.8

KPQI Zoom In..

If you have problems with the map follow the link
https://www.worldairports.se/pages/airport.php?
ICAO=KPQI

Runways:

(A) RW 01 length 7439 ft width 150 ft
ILS 108.70 / hdg 6

(B) RW 10 length 5994 ft width 100 ft
---- / hdg 96

(C) RW 19 length 7439 ft width 150 ft
---- / hdg 186

(D) RW 28 length 5994 ft width 100 ft
---- / hdg 276

Location; KPQI
Day. 07 / Time. 07.56 Zulu
* Altimeter: 30.00
* Temperature: -16° c. -3.2°f.
* Wind from: 000° Speed 00 kn.
Dewpoint: -18° c.
Visibility: 10 Statute Miles.
Clouds: Overcast 6500 ft.

KPQI 070756Z AUTO 00000KT 10SM OVC065 M16/M18 A3000 RMK AO2 SLP197 T11611183


Wind - Calm.

 
 
jpsmedia worldairports.se 2019   terms of use